Time;durP1;ratioP1;P1;durP2;ratioP2;P2;SDS_P1;SDS_P2;PMS_P1;PMS_P2;Temp;Humidity;BMP_temperature;BMP_pressure;BME280_temperature;BME280_humidity;BME280_pressure;Samples;Min_cycle;Max_cycle;Signal;HPM_P1;HPM_P2
2023/11/25 00:01:42;;;;;;;0.10;0.10;;;20.30;44.30;;;;;;5092629;28;20221;-43
2023/11/25 00:04:13;;;;;;;0.00;0.00;;;20.30;44.90;;;;;;5093021;28;20285;-48
2023/11/25 00:06:44;;;;;;;0.00;0.00;;;20.40;44.30;;;;;;5092969;28;20202;-51
2023/11/25 00:09:15;;;;;;;0.10;0.10;;;20.40;44.20;;;;;;5092973;28;20229;-52
2023/11/25 00:11:48;;;;;;;0.10;0.10;;;20.40;44.20;;;;;;5074917;28;20209;-52
2023/11/25 00:14:19;;;;;;;0.10;0.10;;;20.40;44.20;;;;;;5092806;28;20204;-50
2023/11/25 00:16:50;;;;;;;0.00;0.00;;;20.50;44.30;;;;;;5092969;28;20307;-56
2023/11/25 00:19:21;;;;;;;0.05;0.05;;;20.50;44.30;;;;;;5085208;28;20219;-55
2023/11/25 00:21:52;;;;;;;0.00;0.00;;;20.50;44.30;;;;;;5072437;28;20195;-51
2023/11/25 00:24:22;;;;;;;0.10;0.10;;;20.50;44.30;;;;;;5072571;28;20213;-48
2023/11/25 00:26:55;;;;;;;0.00;0.00;;;20.50;44.30;;;;;;5072314;28;20198;-51
2023/11/25 00:29:26;;;;;;;0.08;0.08;;;20.60;44.30;;;;;;5071706;28;20227;-56
2023/11/25 00:31:57;;;;;;;0.00;0.00;;;20.60;44.30;;;;;;5072463;28;20206;-57
2023/11/25 00:34:29;;;;;;;0.00;0.00;;;20.60;44.30;;;;;;5072623;28;20195;-55
2023/11/25 00:37:00;;;;;;;0.00;0.00;;;20.60;44.30;;;;;;5072094;28;20280;-55
2023/11/25 00:39:30;;;;;;;0.00;0.00;;;20.70;44.30;;;;;;5072368;28;20579;-58
2023/11/25 00:42:03;;;;;;;0.10;0.10;;;20.70;44.30;;;;;;5083383;28;20190;-50
2023/11/25 00:44:34;;;;;;;0.10;0.10;;;20.70;44.30;;;;;;5092027;28;20190;-56
2023/11/25 00:47:11;;;;;;;0.08;0.08;;;20.70;44.30;;;;;;5092398;28;20545;-56
2023/11/25 00:49:43;;;;;;;0.00;0.00;;;20.70;44.20;;;;;;5092255;28;20584;-52
2023/11/25 00:52:14;;;;;;;0.10;0.10;;;20.70;44.10;;;;;;5091818;28;20773;-55
2023/11/25 00:54:45;;;;;;;0.05;0.05;;;20.80;44.20;;;;;;5091602;28;20198;-54
2023/11/25 00:57:18;;;;;;;0.10;0.10;;;20.80;44.10;;;;;;5091666;28;20194;-55
2023/11/25 00:59:48;;;;;;;0.10;0.10;;;20.80;44.00;;;;;;5091118;28;20244;-56
2023/11/25 01:02:19;;;;;;;0.00;0.00;;;20.80;44.00;;;;;;5091803;28;20206;-52
2023/11/25 01:04:50;;;;;;;0.00;0.00;;;20.90;44.00;;;;;;5091908;28;20194;-56
2023/11/25 01:07:22;;;;;;;0.10;0.10;;;20.90;43.90;;;;;;5090027;28;20209;-56
2023/11/25 01:09:53;;;;;;;0.10;0.10;;;20.80;43.80;;;;;;5072661;28;20586;-55
2023/11/25 01:12:26;;;;;;;0.00;0.00;;;20.90;43.80;;;;;;5087779;28;20232;-55
2023/11/25 01:14:57;;;;;;;0.08;0.08;;;20.90;43.80;;;;;;5091535;28;20198;-56
2023/11/25 01:17:29;;;;;;;0.05;0.05;;;20.90;43.70;;;;;;5091632;28;20194;-53
2023/11/25 01:20:00;;;;;;;0.00;0.00;;;20.90;43.70;;;;;;5091822;28;20230;-56
2023/11/25 01:22:31;;;;;;;0.10;0.10;;;20.90;43.70;;;;;;5091748;28;20205;-51
2023/11/25 01:25:02;;;;;;;0.00;0.00;;;20.90;43.70;;;;;;5091935;28;20205;-55
2023/11/25 01:27:35;;;;;;;0.10;0.10;;;21.00;43.60;;;;;;5091673;28;20204;-57
2023/11/25 01:30:06;;;;;;;0.00;0.00;;;21.00;43.60;;;;;;5091446;28;20202;-56
2023/11/25 01:32:37;;;;;;;0.00;0.00;;;21.00;43.60;;;;;;5087765;28;20187;-55
2023/11/25 01:35:08;;;;;;;0.10;0.10;;;21.00;43.50;;;;;;5091424;28;20217;-53
2023/11/25 01:37:39;;;;;;;0.00;0.00;;;21.00;43.40;;;;;;5092137;28;20202;-55
2023/11/25 01:40:12;;;;;;;0.00;0.00;;;21.00;43.50;;;;;;5091593;28;20247;-56
2023/11/25 01:42:44;;;;;;;0.00;0.00;;;21.10;43.60;;;;;;5091327;28;20579;-50
2023/11/25 01:45:15;;;;;;;0.08;0.08;;;21.00;43.50;;;;;;5090981;28;20194;-52
2023/11/25 01:47:46;;;;;;;0.00;0.00;;;21.10;43.50;;;;;;5090269;28;20549;-54
2023/11/25 01:50:17;;;;;;;0.00;0.00;;;21.10;43.40;;;;;;5091611;28;20198;-49
2023/11/25 01:52:49;;;;;;;0.10;0.10;;;21.10;43.40;;;;;;5093001;28;20190;-50
2023/11/25 01:55:21;;;;;;;0.00;0.00;;;21.10;43.40;;;;;;5095222;28;20227;-55
2023/11/25 01:57:54;;;;;;;0.00;0.00;;;21.10;43.30;;;;;;5095069;28;20681;-49
2023/11/25 02:00:28;;;;;;;0.10;0.10;;;21.20;43.40;;;;;;5094834;28;20628;-54
2023/11/25 02:03:00;;;;;;;0.03;0.03;;;21.20;43.30;;;;;;5095359;28;20259;-50
2023/11/25 02:05:31;;;;;;;0.00;0.00;;;21.20;44.00;;;;;;5095450;28;20197;-56
2023/11/25 02:08:02;;;;;;;0.03;0.03;;;21.20;43.30;;;;;;5094585;28;20304;-56
2023/11/25 02:10:32;;;;;;;0.10;0.10;;;21.20;43.20;;;;;;5094781;28;20197;-56
2023/11/25 02:13:08;;;;;;;0.00;0.00;;;21.20;43.20;;;;;;5094596;28;20198;-56
2023/11/25 02:15:39;;;;;;;0.00;0.00;;;21.20;43.30;;;;;;5094695;28;20197;-51
2023/11/25 02:18:10;;;;;;;0.00;0.00;;;21.20;43.20;;;;;;5095287;28;20218;-51
2023/11/25 02:20:42;;;;;;;0.08;0.08;;;21.30;43.20;;;;;;5095252;28;20641;-56
2023/11/25 02:23:22;;;;;;;0.00;0.00;;;21.30;43.30;;;;;;5094899;28;20262;-52
2023/11/25 02:25:53;;;;;;;0.00;0.00;;;21.30;43.30;;;;;;5094790;28;20669;-50
2023/11/25 02:28:24;;;;;;;0.00;0.00;;;21.30;43.20;;;;;;5084037;28;20219;-56
2023/11/25 02:30:55;;;;;;;0.00;0.00;;;21.40;43.20;;;;;;5074879;28;20202;-55
2023/11/25 02:33:26;;;;;;;0.05;0.05;;;21.40;43.10;;;;;;5074431;28;20191;-55
2023/11/25 02:35:57;;;;;;;0.00;0.00;;;21.40;43.10;;;;;;5074070;28;20205;-55
2023/11/25 02:38:30;;;;;;;0.10;0.10;;;21.40;43.10;;;;;;5074653;28;20318;-56
2023/11/25 02:41:01;;;;;;;0.00;0.00;;;21.50;43.00;;;;;;5078679;28;20198;-55
2023/11/25 02:43:31;;;;;;;0.10;0.10;;;21.50;43.00;;;;;;5092580;28;20197;-52
2023/11/25 02:46:03;;;;;;;0.10;0.10;;;21.50;43.10;;;;;;5094659;28;20190;-57
2023/11/25 02:48:35;;;;;;;0.03;0.03;;;21.50;43.00;;;;;;5094106;28;20229;-54
2023/11/25 02:51:05;;;;;;;0.10;0.10;;;21.60;43.10;;;;;;5094067;28;20203;-57
2023/11/25 02:53:39;;;;;;;0.10;0.10;;;21.60;43.10;;;;;;5094525;28;20190;-55
2023/11/25 02:56:10;;;;;;;0.00;0.00;;;21.60;42.90;;;;;;5094381;28;20539;-56
2023/11/25 02:58:42;;;;;;;0.00;0.00;;;21.60;42.90;;;;;;5094189;28;20225;-56
2023/11/25 03:01:14;;;;;;;0.10;0.10;;;21.70;42.90;;;;;;5094299;28;20715;-56
2023/11/25 03:03:48;;;;;;;0.03;0.03;;;21.70;42.90;;;;;;5093670;28;20230;-55
2023/11/25 03:06:22;;;;;;;0.00;0.00;;;21.70;42.90;;;;;;5083394;28;20199;-57
2023/11/25 03:08:55;;;;;;;0.08;0.08;;;21.70;42.90;;;;;;5082052;28;20230;-53
2023/11/25 03:11:26;;;;;;;0.00;0.00;;;21.70;42.80;;;;;;5085228;28;20209;-55
2023/11/25 03:13:57;;;;;;;0.00;0.00;;;21.80;42.90;;;;;;5074814;28;20274;-56
2023/11/25 03:16:29;;;;;;;0.00;0.00;;;21.80;42.80;;;;;;5073693;28;20201;-51
2023/11/25 03:19:00;;;;;;;0.00;0.00;;;21.80;42.80;;;;;;5073744;28;20215;-56
2023/11/25 03:21:31;;;;;;;0.00;0.00;;;21.80;42.70;;;;;;5081753;28;20201;-54
2023/11/25 03:24:05;;;;;;;0.00;0.00;;;21.90;42.80;;;;;;5093080;28;20201;-54
2023/11/25 03:26:36;;;;;;;0.00;0.00;;;21.90;42.60;;;;;;5092507;28;20193;-54
2023/11/25 03:29:07;;;;;;;0.10;0.10;;;21.90;42.60;;;;;;5091538;28;20222;-54
2023/11/25 03:31:43;;;;;;;0.00;0.00;;;22.00;42.70;;;;;;5092576;28;20281;-53
2023/11/25 03:34:14;;;;;;;0.00;0.00;;;22.00;42.50;;;;;;5093133;28;20190;-51
2023/11/25 03:36:45;;;;;;;0.00;0.00;;;22.00;42.50;;;;;;5086011;28;20202;-53
2023/11/25 03:39:17;;;;;;;0.10;0.10;;;22.00;42.40;;;;;;5091021;28;20221;-55
2023/11/25 03:41:48;;;;;;;0.00;0.00;;;22.10;42.40;;;;;;5080764;28;20201;-55
2023/11/25 03:44:19;;;;;;;0.00;0.00;;;22.10;42.30;;;;;;5090115;28;20194;-52
2023/11/25 03:46:50;;;;;;;0.08;0.08;;;22.10;42.30;;;;;;5092852;28;20202;-55
2023/11/25 03:49:21;;;;;;;0.00;0.00;;;22.20;42.30;;;;;;5092669;28;20226;-55
2023/11/25 03:51:52;;;;;;;0.10;0.10;;;22.20;42.40;;;;;;5091839;28;20200;-55
2023/11/25 03:54:25;;;;;;;0.10;0.10;;;22.20;42.30;;;;;;5091811;28;20211;-55
2023/11/25 03:56:55;;;;;;;0.00;0.00;;;22.20;42.20;;;;;;5092815;28;20211;-48
2023/11/25 03:59:26;;;;;;;0.00;0.00;;;22.20;42.20;;;;;;5092180;28;20580;-55
2023/11/25 04:01:57;;;;;;;0.10;0.10;;;22.30;42.30;;;;;;5092254;28;20198;-55
2023/11/25 04:04:28;;;;;;;0.00;0.00;;;22.30;42.30;;;;;;5089847;28;20194;-50
2023/11/25 04:06:59;;;;;;;0.00;0.00;;;22.30;42.30;;;;;;5092793;28;20194;-56
2023/11/25 04:09:32;;;;;;;0.00;0.00;;;22.40;42.30;;;;;;5092548;28;20580;-55
2023/11/25 04:12:02;;;;;;;0.00;0.00;;;22.40;42.30;;;;;;5091446;28;20202;-54
2023/11/25 04:14:33;;;;;;;0.10;0.10;;;22.40;42.20;;;;;;5089495;28;20190;-55
2023/11/25 04:17:04;;;;;;;0.00;0.00;;;22.40;42.20;;;;;;5075181;28;20190;-48
2023/11/25 04:19:35;;;;;;;0.00;0.00;;;22.50;42.10;;;;;;5092008;28;20245;-55
2023/11/25 04:22:06;;;;;;;0.05;0.05;;;22.50;42.10;;;;;;5092149;28;20209;-51
2023/11/25 04:24:40;;;;;;;0.00;0.00;;;22.50;42.00;;;;;;5091451;28;20186;-56
2023/11/25 04:27:12;;;;;;;0.08;0.08;;;22.50;42.10;;;;;;5088494;28;20222;-53
2023/11/25 04:29:45;;;;;;;0.00;0.00;;;22.60;42.10;;;;;;5090028;28;20230;-56
2023/11/25 04:32:15;;;;;;;0.00;0.00;;;22.60;42.10;;;;;;5091243;28;20224;-49
2023/11/25 04:34:46;;;;;;;0.10;0.10;;;22.60;42.00;;;;;;5091495;28;20190;-55
2023/11/25 04:37:17;;;;;;;0.00;0.00;;;22.60;42.00;;;;;;5092194;28;20206;-55
2023/11/25 04:39:49;;;;;;;0.00;0.00;;;22.60;42.00;;;;;;5091805;28;20259;-51
2023/11/25 04:42:20;;;;;;;0.00;0.00;;;22.70;42.00;;;;;;5089958;28;20206;-53
2023/11/25 04:44:51;;;;;;;0.00;0.00;;;22.70;42.00;;;;;;5082092;28;20277;-56
2023/11/25 04:47:21;;;;;;;0.00;0.00;;;22.70;41.90;;;;;;5091572;28;20555;-51
2023/11/25 04:49:52;;;;;;;0.00;0.00;;;22.70;41.80;;;;;;5090591;28;20226;-55
2023/11/25 04:52:23;;;;;;;0.10;0.10;;;22.70;41.90;;;;;;5091517;28;20198;-53
2023/11/25 04:54:57;;;;;;;0.00;0.00;;;22.70;41.80;;;;;;5091068;28;20197;-56
2023/11/25 04:57:27;;;;;;;0.10;0.10;;;22.70;41.90;;;;;;5091601;28;20564;-50
2023/11/25 04:59:58;;;;;;;0.00;0.00;;;22.70;41.90;;;;;;5091777;28;20210;-53
2023/11/25 05:02:29;;;;;;;0.00;0.00;;;22.80;41.90;;;;;;5091110;28;20201;-52
2023/11/25 05:05:00;;;;;;;0.00;0.00;;;22.80;41.90;;;;;;5079831;28;20194;-52
2023/11/25 05:07:30;;;;;;;0.10;0.10;;;22.80;41.90;;;;;;5070923;28;20194;-55
2023/11/25 05:10:04;;;;;;;0.00;0.00;;;22.90;41.90;;;;;;5089657;28;20577;-53
2023/11/25 05:12:35;;;;;;;0.00;0.00;;;22.80;41.80;;;;;;5090562;28;20194;-56
2023/11/25 05:15:07;;;;;;;0.10;0.10;;;22.80;41.60;;;;;;5084357;28;20190;-55
2023/11/25 05:17:37;;;;;;;0.05;0.05;;;22.80;41.60;;;;;;5070468;28;20608;-52
2023/11/25 05:20:15;;;;;;;0.08;0.08;;;22.80;41.40;;;;;;5070344;28;20205;-50
2023/11/25 05:22:46;;;;;;;0.00;0.00;;;22.80;41.20;;;;;;5071128;28;20198;-56
2023/11/25 05:25:18;;;;;;;0.10;0.10;;;22.80;41.10;;;;;;5089329;28;20220;-52
2023/11/25 05:27:50;;;;;;;0.10;0.10;;;22.90;41.00;;;;;;5081451;28;20560;-49
2023/11/25 05:30:22;;;;;;;0.00;0.00;;;22.80;41.00;;;;;;5089355;28;20222;-54
2023/11/25 05:32:53;;;;;;;0.00;0.00;;;22.80;40.90;;;;;;5091380;28;20229;-53
2023/11/25 05:35:24;;;;;;;0.00;0.00;;;22.80;41.00;;;;;;5091328;28;20225;-56
2023/11/25 05:37:54;;;;;;;0.10;0.10;;;22.80;41.00;;;;;;5092054;28;20202;-48
2023/11/25 05:40:29;;;;;;;0.10;0.10;;;22.80;41.00;;;;;;5091591;28;20208;-56
2023/11/25 05:43:01;;;;;;;0.03;0.03;;;22.80;41.00;;;;;;5091574;28;20245;-51
2023/11/25 05:45:32;;;;;;;0.10;0.10;;;22.80;41.00;;;;;;5091459;28;20198;-55
2023/11/25 05:48:02;;;;;;;0.10;0.10;;;22.80;41.00;;;;;;5089507;28;20210;-55
2023/11/25 05:50:33;;;;;;;0.00;0.00;;;22.80;41.00;;;;;;5091164;28;20259;-55
2023/11/25 05:53:04;;;;;;;0.00;0.00;;;22.80;40.90;;;;;;5090969;28;20190;-55
2023/11/25 05:55:37;;;;;;;0.10;0.10;;;22.80;40.70;;;;;;5090865;28;20729;-53
2023/11/25 05:58:07;;;;;;;0.10;0.10;;;22.80;40.60;;;;;;5091268;28;20222;-55
2023/11/25 06:00:38;;;;;;;0.00;0.00;;;22.80;40.50;;;;;;5091258;28;20190;-51
2023/11/25 06:03:09;;;;;;;0.00;0.00;;;22.80;40.60;;;;;;5091554;28;20209;-56
2023/11/25 06:05:39;;;;;;;0.10;0.10;;;22.80;40.60;;;;;;5091502;28;20198;-57
2023/11/25 06:08:10;;;;;;;0.00;0.00;;;22.80;40.50;;;;;;5091182;28;20224;-49
2023/11/25 06:10:43;;;;;;;0.00;0.00;;;22.80;40.50;;;;;;5091199;28;20222;-55
2023/11/25 06:13:13;;;;;;;0.10;0.10;;;22.80;40.30;;;;;;5091368;28;20369;-48
2023/11/25 06:15:44;;;;;;;0.00;0.00;;;22.80;40.40;;;;;;5091282;28;20672;-55
2023/11/25 06:18:17;;;;;;;0.10;0.10;;;22.80;40.30;;;;;;5091262;28;20210;-44
2023/11/25 06:20:48;;;;;;;0.00;0.00;;;22.80;40.30;;;;;;5091347;28;20206;-55
2023/11/25 06:23:18;;;;;;;0.00;0.00;;;22.80;40.30;;;;;;5091265;28;20195;-56
2023/11/25 06:25:51;;;;;;;0.08;0.08;;;22.80;40.50;;;;;;5090941;28;20212;-43
2023/11/25 06:28:24;;;;;;;0.00;0.00;;;22.80;40.60;;;;;;5090449;28;20210;-56
2023/11/25 06:30:55;;;;;;;0.10;0.10;;;22.80;40.60;;;;;;5090081;28;20261;-55
2023/11/25 06:33:26;;;;;;;0.10;0.10;;;22.80;40.70;;;;;;5081467;28;20195;-56
2023/11/25 06:35:57;;;;;;;0.00;0.00;;;22.80;40.70;;;;;;5070668;28;20240;-54
2023/11/25 06:38:27;;;;;;;0.00;0.00;;;22.80;40.60;;;;;;5071923;28;20281;-52
2023/11/25 06:41:00;;;;;;;0.03;0.03;;;22.80;40.50;;;;;;5078501;28;20205;-44
2023/11/25 06:43:31;;;;;;;0.10;0.10;;;22.80;40.30;;;;;;5094816;28;20280;-58
2023/11/25 06:46:02;;;;;;;0.08;0.08;;;22.80;40.30;;;;;;5091184;28;20199;-56
2023/11/25 06:48:33;;;;;;;0.00;0.00;;;22.80;40.20;;;;;;5073983;28;20225;-55
2023/11/25 06:51:04;;;;;;;0.10;0.10;;;22.80;40.20;;;;;;5074039;28;20222;-52
2023/11/25 06:53:35;;;;;;;0.00;0.00;;;22.80;40.10;;;;;;5089056;28;20194;-57
2023/11/25 06:56:10;;;;;;;0.00;0.00;;;22.80;40.20;;;;;;5094209;28;20194;-53
2023/11/25 06:58:41;;;;;;;0.00;0.00;;;22.80;40.20;;;;;;5093755;28;20214;-53
2023/11/25 07:01:18;;;;;;;0.00;0.00;;;22.80;40.20;;;;;;5090771;28;20196;-56
2023/11/25 07:03:49;;;;;;;0.03;0.03;;;22.70;40.10;;;;;;5092965;28;20240;-54
2023/11/25 07:06:20;;;;;;;0.00;0.00;;;22.70;40.20;;;;;;5093134;28;20538;-57
2023/11/25 07:08:52;;;;;;;0.00;0.00;;;22.70;40.20;;;;;;5093311;28;20221;-53
2023/11/25 07:11:24;;;;;;;0.00;0.00;;;22.70;40.20;;;;;;5093407;28;20226;-57
2023/11/25 07:13:56;;;;;;;0.05;0.05;;;22.70;40.20;;;;;;5093863;28;20194;-57
2023/11/25 07:16:29;;;;;;;0.00;0.00;;;22.70;40.20;;;;;;5094055;28;20460;-50
2023/11/25 07:19:00;;;;;;;0.10;0.10;;;22.70;40.30;;;;;;5094053;28;20218;-57
2023/11/25 07:21:31;;;;;;;0.00;0.00;;;22.70;40.30;;;;;;5093051;28;20202;-53
2023/11/25 07:24:02;;;;;;;0.10;0.10;;;22.70;40.30;;;;;;5078456;28;20195;-46
2023/11/25 07:26:39;;;;;;;0.00;0.00;;;22.60;40.30;;;;;;5073668;28;20222;-58
2023/11/25 07:29:11;;;;;;;0.00;0.00;;;22.60;40.40;;;;;;5072993;28;20272;-56
2023/11/25 07:31:42;;;;;;;0.08;0.08;;;22.60;40.30;;;;;;5074162;28;20217;-51
2023/11/25 07:34:13;;;;;;;0.00;0.00;;;22.60;40.40;;;;;;5093391;28;20201;-53
2023/11/25 07:36:46;;;;;;;0.03;0.03;;;22.60;40.40;;;;;;5093049;28;20666;-50
2023/11/25 07:39:19;;;;;;;0.00;0.00;;;22.60;40.40;;;;;;5093998;28;20213;-55
2023/11/25 07:41:53;;;;;;;0.10;0.10;;;22.60;40.40;;;;;;5093614;28;20199;-54
2023/11/25 07:44:26;;;;;;;0.00;0.00;;;22.50;40.30;;;;;;5093229;28;20194;-56
2023/11/25 07:46:57;;;;;;;0.03;0.03;;;22.50;40.30;;;;;;5091539;28;20190;-50
2023/11/25 07:49:29;;;;;;;0.00;0.00;;;22.40;40.30;;;;;;5092327;28;20218;-56
2023/11/25 07:52:00;;;;;;;0.00;0.00;;;22.50;40.40;;;;;;5092251;28;20198;-58
2023/11/25 07:54:31;;;;;;;0.00;0.00;;;22.40;40.40;;;;;;5093001;28;20642;-57
2023/11/25 07:57:04;;;;;;;0.00;0.00;;;22.40;40.40;;;;;;5092869;28;20661;-56
2023/11/25 07:59:35;;;;;;;0.10;0.10;;;22.40;40.50;;;;;;5092700;28;20210;-53
2023/11/25 08:02:06;;;;;;;0.05;0.05;;;22.30;40.50;;;;;;5093187;28;20200;-56
2023/11/25 08:04:37;;;;;;;0.00;0.00;;;22.30;40.50;;;;;;5092959;28;20194;-57
2023/11/25 08:07:08;;;;;;;0.00;0.00;;;22.30;40.50;;;;;;5092554;28;20205;-56
2023/11/25 08:09:38;;;;;;;0.00;0.00;;;22.30;40.60;;;;;;5092814;28;20751;-55
2023/11/25 08:12:11;;;;;;;0.00;0.00;;;22.30;40.60;;;;;;5092762;28;20209;-53
2023/11/25 08:14:43;;;;;;;0.03;0.03;;;22.30;40.60;;;;;;5092591;28;20579;-56
2023/11/25 08:17:14;;;;;;;0.10;0.10;;;22.20;40.60;;;;;;5092811;28;20194;-57
2023/11/25 08:19:45;;;;;;;0.10;0.10;;;22.20;40.60;;;;;;5092678;28;20216;-54
2023/11/25 08:22:16;;;;;;;0.10;0.10;;;22.20;40.60;;;;;;5092059;28;20236;-57
2023/11/25 08:24:47;;;;;;;0.00;0.00;;;22.20;40.60;;;;;;5092581;28;20198;-56
2023/11/25 08:27:20;;;;;;;0.00;0.00;;;22.20;40.60;;;;;;5092493;28;20194;-54
2023/11/25 08:29:51;;;;;;;0.03;0.03;;;22.20;40.50;;;;;;5092371;28;20214;-56
2023/11/25 08:32:22;;;;;;;0.00;0.00;;;22.10;40.50;;;;;;5092332;28;20562;-56
2023/11/25 08:34:52;;;;;;;0.00;0.00;;;22.10;40.50;;;;;;5074826;28;20203;-56
2023/11/25 08:37:27;;;;;;;0.08;0.08;;;22.10;40.60;;;;;;5092121;28;20263;-57
2023/11/25 08:39:58;;;;;;;0.10;0.10;;;22.10;40.60;;;;;;5092786;28;20221;-56
2023/11/25 08:42:30;;;;;;;0.00;0.00;;;22.10;40.60;;;;;;5075647;28;20191;-57
2023/11/25 08:45:02;;;;;;;0.00;0.00;;;22.10;40.60;;;;;;5071440;28;20347;-56
2023/11/25 08:47:35;;;;;;;0.10;0.10;;;22.00;40.60;;;;;;5071253;28;20297;-55
2023/11/25 08:50:07;;;;;;;0.00;0.00;;;22.00;40.60;;;;;;5070378;28;20314;-53
2023/11/25 08:52:38;;;;;;;0.10;0.10;;;22.00;40.60;;;;;;5071048;28;20187;-57
2023/11/25 08:55:10;;;;;;;0.03;0.03;;;21.90;40.60;;;;;;5073418;28;20191;-55
2023/11/25 08:57:43;;;;;;;0.10;0.10;;;21.90;40.70;;;;;;5073892;28;20198;-58
2023/11/25 09:00:16;;;;;;;0.08;0.08;;;21.90;40.70;;;;;;5089897;28;20198;-56
2023/11/25 09:02:48;;;;;;;0.03;0.03;;;21.90;40.60;;;;;;5083197;28;20187;-54
2023/11/25 09:05:21;;;;;;;0.10;0.10;;;21.90;40.60;;;;;;5069698;28;20197;-57
2023/11/25 09:07:52;;;;;;;0.10;0.10;;;21.80;40.60;;;;;;5071018;28;20278;-55
2023/11/25 09:10:23;;;;;;;0.00;0.00;;;21.80;40.60;;;;;;5077807;28;20209;-56
2023/11/25 09:12:56;;;;;;;0.10;0.10;;;21.80;40.60;;;;;;5070624;28;20212;-56
2023/11/25 09:15:27;;;;;;;0.00;0.00;;;21.80;40.70;;;;;;5082254;28;20197;-55
2023/11/25 09:17:58;;;;;;;0.10;0.10;;;21.70;40.60;;;;;;5090417;28;20201;-57
2023/11/25 09:20:29;;;;;;;0.10;0.10;;;21.70;40.60;;;;;;5089197;28;20198;-55
2023/11/25 09:22:59;;;;;;;0.00;0.00;;;21.70;40.70;;;;;;5071085;28;20202;-57
2023/11/25 09:25:31;;;;;;;0.00;0.00;;;21.60;40.70;;;;;;5071308;28;20202;-56
2023/11/25 09:28:03;;;;;;;0.10;0.10;;;21.60;40.70;;;;;;5070767;28;20201;-55
2023/11/25 09:30:34;;;;;;;0.10;0.10;;;21.60;40.70;;;;;;5070633;28;20233;-57
2023/11/25 09:33:05;;;;;;;0.00;0.00;;;21.60;41.40;;;;;;5081115;28;20298;-57
2023/11/25 09:35:36;;;;;;;0.10;0.10;;;21.50;40.70;;;;;;5072050;28;20194;-53
2023/11/25 09:38:07;;;;;;;0.00;0.00;;;21.50;40.70;;;;;;5091194;28;20206;-58
2023/11/25 09:40:39;;;;;;;0.03;0.03;;;21.50;40.80;;;;;;5090846;28;20287;-53
2023/11/25 09:43:12;;;;;;;0.00;0.00;;;21.50;40.80;;;;;;5090808;28;20289;-55
2023/11/25 09:45:43;;;;;;;0.00;0.00;;;21.50;40.80;;;;;;5090502;28;20201;-56
2023/11/25 09:48:14;;;;;;;0.10;0.10;;;21.40;40.80;;;;;;5087562;28;20677;-56
2023/11/25 09:50:45;;;;;;;0.10;0.10;;;21.40;40.80;;;;;;5090251;28;20217;-57
2023/11/25 09:53:24;;;;;;;0.10;0.10;;;21.40;40.80;;;;;;5090826;28;20190;-56
2023/11/25 09:56:04;;;;;;;0.10;0.10;;;21.40;40.80;;;;;;5090494;28;20193;-56
2023/11/25 09:58:37;;;;;;;0.00;0.00;;;21.30;40.80;;;;;;5091106;28;20731;-57
2023/11/25 10:01:12;;;;;;;0.10;0.10;;;21.30;40.80;;;;;;5089650;28;20244;-57
2023/11/25 10:03:45;;;;;;;0.10;0.10;;;21.20;40.80;;;;;;5090768;28;20193;-55
2023/11/25 10:06:16;;;;;;;0.10;0.10;;;21.20;40.80;;;;;;5089242;28;20236;-54
2023/11/25 10:08:46;;;;;;;0.10;0.10;;;21.20;40.90;;;;;;5090350;28;20279;-48
2023/11/25 10:11:21;;;;;;;0.10;0.10;;;21.20;40.90;;;;;;5090508;28;20229;-55
2023/11/25 10:13:54;;;;;;;0.08;0.05;;;21.10;41.10;;;;;;5091970;28;20201;-50
2023/11/25 10:16:34;;;;;;;0.00;0.00;;;21.10;41.30;;;;;;5094135;28;20198;-57
2023/11/25 10:19:05;;;;;;;0.00;0.00;;;21.10;41.50;;;;;;5093937;28;20220;-56
2023/11/25 10:21:39;;;;;;;0.00;0.00;;;21.10;41.60;;;;;;5094450;28;20193;-52
2023/11/25 10:24:10;;;;;;;0.10;0.10;;;21.10;41.60;;;;;;5094598;28;20194;-51
2023/11/25 10:26:42;;;;;;;0.10;0.10;;;21.10;41.60;;;;;;5091108;28;20217;-54
2023/11/25 10:29:16;;;;;;;0.10;0.10;;;21.10;41.70;;;;;;5093500;28;20314;-52
2023/11/25 10:31:47;;;;;;;0.10;0.10;;;21.00;41.70;;;;;;5094004;28;20214;-52
2023/11/25 10:34:21;;;;;;;0.00;0.00;;;21.00;41.70;;;;;;5090304;28;20194;-48
2023/11/25 10:36:52;;;;;;;0.10;0.10;;;21.00;41.80;;;;;;5089389;28;20194;-55
2023/11/25 10:39:24;;;;;;;0.00;0.00;;;21.00;41.80;;;;;;5078769;28;20634;-55
2023/11/25 10:41:55;;;;;;;0.10;0.10;;;21.00;41.90;;;;;;5088277;28;20198;-47
2023/11/25 10:44:28;;;;;;;0.05;0.05;;;20.90;41.90;;;;;;5073185;28;20194;-54
2023/11/25 10:46:59;;;;;;;0.10;0.10;;;20.90;41.90;;;;;;5072825;28;20197;-54
2023/11/25 10:49:34;;;;;;;0.00;0.00;;;20.90;41.90;;;;;;5073477;28;20222;-54
2023/11/25 10:52:06;;;;;;;0.10;0.10;;;20.90;42.00;;;;;;5085390;28;20214;-57
2023/11/25 10:54:37;;;;;;;0.00;0.00;;;20.90;42.00;;;;;;5090363;28;20206;-58
2023/11/25 10:57:10;;;;;;;0.10;0.10;;;20.90;42.10;;;;;;5079069;28;20190;-57
2023/11/25 10:59:43;;;;;;;0.10;0.10;;;20.80;42.10;;;;;;5084318;28;20225;-56
2023/11/25 11:02:23;;;;;;;0.10;0.10;;;20.80;42.10;;;;;;5084057;28;20195;-52
2023/11/25 11:04:58;;;;;;;0.10;0.10;;;20.80;42.20;;;;;;5083305;28;20204;-55
2023/11/25 11:07:30;;;;;;;0.10;0.10;;;20.80;42.30;;;;;;5083483;28;20681;-58
2023/11/25 11:10:04;;;;;;;0.00;0.00;;;20.70;42.30;;;;;;5082417;28;20202;-45
2023/11/25 11:12:42;;;;;;;0.10;0.10;;;20.70;42.50;;;;;;5083915;28;20214;-55
2023/11/25 11:15:17;;;;;;;0.00;0.00;;;20.70;43.20;;;;;;5083489;28;20190;-50
2023/11/25 11:17:56;;;;;;;0.00;0.00;;;20.70;42.60;;;;;;5083029;28;20274;-57
2023/11/25 11:20:29;;;;;;;0.00;0.00;;;20.70;42.70;;;;;;5080944;28;20274;-57
2023/11/25 11:23:01;;;;;;;0.00;0.00;;;20.70;42.70;;;;;;5084500;28;20190;-56
2023/11/25 11:25:38;;;;;;;0.00;0.00;;;20.60;42.70;;;;;;5082115;28;20187;-54
2023/11/25 11:28:19;;;;;;;0.10;0.10;;;20.60;43.10;;;;;;5082145;28;20290;-57
2023/11/25 11:31:24;;;;;;;0.10;0.10;;;20.60;43.10;;;;;;5085248;28;20238;-57
2023/11/25 11:33:55;;;;;;;0.00;0.00;;;20.60;43.10;;;;;;5086404;28;20225;-43
2023/11/25 11:36:33;;;;;;;0.03;0.03;;;20.50;43.00;;;;;;5082560;28;20195;-57
2023/11/25 11:39:04;;;;;;;0.10;0.10;;;20.50;43.00;;;;;;5089660;22;20218;-50
2023/11/25 11:41:38;;;;;;;0.10;0.10;;;20.50;43.00;;;;;;5071554;28;20201;-52
2023/11/25 11:44:10;;;;;;;0.03;0.03;;;20.50;43.00;;;;;;5072865;28;20183;-55
2023/11/25 11:46:43;;;;;;;0.00;0.00;;;20.50;43.00;;;;;;5072226;28;20233;-52
2023/11/25 11:49:16;;;;;;;0.00;0.00;;;20.40;42.90;;;;;;5062308;28;20683;-51
2023/11/25 11:52:04;;;;;;;0.00;0.00;;;20.40;42.90;;;;;;5050434;28;20744;-54
2023/11/25 11:54:35;;;;;;;0.10;0.10;;;20.40;43.00;;;;;;5051452;28;20187;-56
2023/11/25 11:57:08;;;;;;;0.00;0.00;;;20.40;43.00;;;;;;5050504;28;20196;-52
2023/11/25 12:00:00;;;;;;;0.10;0.10;;;20.40;42.90;;;;;;5052289;28;20269;-50
2023/11/25 12:02:37;;;;;;;0.00;0.00;;;20.30;42.90;;;;;;5050684;28;20719;-56
2023/11/25 12:05:09;;;;;;;0.00;0.00;;;20.30;42.90;;;;;;5050727;28;20217;-52
2023/11/25 12:07:40;;;;;;;0.10;0.10;;;20.30;42.90;;;;;;5052262;28;20246;-56
2023/11/25 12:10:11;;;;;;;0.00;0.00;;;20.20;43.40;;;;;;5051915;28;20224;-54
2023/11/25 12:12:44;;;;;;;0.10;0.10;;;20.20;42.90;;;;;;5051760;28;20266;-55
2023/11/25 12:15:16;;;;;;;0.10;0.10;;;20.20;42.90;;;;;;5051748;28;20202;-50
2023/11/25 12:17:48;;;;;;;0.08;0.08;;;20.20;42.90;;;;;;5049941;28;20196;-58
2023/11/25 12:20:20;;;;;;;0.00;0.00;;;20.10;42.80;;;;;;5052781;28;20219;-54
2023/11/25 12:22:50;;;;;;;0.00;0.00;;;20.10;42.80;;;;;;5052679;28;20541;-54
2023/11/25 12:25:21;;;;;;;0.00;0.00;;;20.10;42.80;;;;;;5052098;28;20277;-54
2023/11/25 12:28:00;;;;;;;0.00;0.00;;;20.10;42.80;;;;;;5052361;28;20202;-48
2023/11/25 12:30:31;;;;;;;0.03;0.03;;;20.10;42.80;;;;;;5052329;28;20203;-52
2023/11/25 12:33:04;;;;;;;0.08;0.08;;;20.00;42.80;;;;;;5052352;28;20304;-55
2023/11/25 12:35:35;;;;;;;0.00;0.00;;;20.00;42.80;;;;;;5052403;28;20214;-54
2023/11/25 12:40:40;;;;;;;0.00;0.00;;;19.90;43.40;;;;;;5068850;28;20213;-52
2023/11/25 12:43:12;;;;;;;0.03;0.03;;;19.90;42.80;;;;;;5051973;28;20573;-55
2023/11/25 12:45:43;;;;;;;0.10;0.10;;;19.90;42.80;;;;;;5051642;28;20655;-57
2023/11/25 12:48:20;;;;;;;0.00;0.00;;;19.90;42.80;;;;;;5062524;28;20195;-49
2023/11/25 12:51:06;;;;;;;0.10;0.10;;;19.80;42.80;;;;;;5071434;28;20688;-55
2023/11/25 12:53:37;;;;;;;0.10;0.10;;;19.80;42.80;;;;;;5070096;28;20199;-55
2023/11/25 12:56:17;;;;;;;0.10;0.10;;;19.80;43.40;;;;;;5034158;28;20551;-54
2023/11/25 12:58:48;;;;;;;0.00;0.00;;;19.80;42.80;;;;;;5032911;28;20303;-56
2023/11/25 13:01:18;;;;;;;0.10;0.10;;;19.80;42.80;;;;;;5039974;28;20660;-56
2023/11/25 13:03:51;;;;;;;0.00;0.00;;;19.70;42.80;;;;;;5041452;28;20191;-55
2023/11/25 13:06:22;;;;;;;0.00;0.00;;;19.70;42.80;;;;;;5042102;28;20542;-56
2023/11/25 13:08:52;;;;;;;0.00;0.00;;;19.70;42.80;;;;;;5041476;28;20223;-54
2023/11/25 13:11:24;;;;;;;0.10;0.10;;;19.70;42.80;;;;;;5038617;28;20200;-55
2023/11/25 13:13:56;;;;;;;0.00;0.00;;;19.60;42.80;;;;;;5037171;28;20250;-54
2023/11/25 13:16:26;;;;;;;0.03;0.03;;;19.60;42.80;;;;;;5031784;28;20396;-56